Pikes Falls, Vermont
Current Conditions -  °F | °C
As of 5:54 AM on Tuesday 21 Oct 2014 (Local Time) from KVSF Reporting Station
Overcast Overcast  
Wind Chill: 43°   Ceiling: 9000
Heat Index: 43°   Visibility: 8mi
Dew Point: 42°   Wind: 3mph
Humidity: 97%   Direction: 180°S
Pressure: 29.96"   Gusts: NA
Location:  43.1008°N, 72.8076°W
Report Text: KVSF 210954Z AUTO 18003KT 8SM FEW055 OVC090 06/06 A2996 RMK AO2 RAE16 SLP148 P0000 T00610056
Loading
Personal Weather Stations






























Interactive Weather Map New forecast layout! Learn more

10-Day Weather Forecast

Advertisements
Track Severe Weather on mobile